createdAt,value
2022-08-05T00:01:35.732Z,62.96
2022-08-05T00:04:05.169Z,62.81
2022-08-05T00:06:36.469Z,62.97
2022-08-05T00:09:05.358Z,63.19
2022-08-05T00:11:49.115Z,63.17
2022-08-05T00:14:26.459Z,63.62
2022-08-05T00:16:57.205Z,63.97
2022-08-05T00:19:33.216Z,63.74
2022-08-05T00:22:11.330Z,64.29
2022-08-05T00:24:42.192Z,64.16
2022-08-05T00:27:16.595Z,64.44
2022-08-05T00:29:45.101Z,64.55
2022-08-05T00:32:15.306Z,64.52
2022-08-05T00:35:05.065Z,64.35
2022-08-05T00:37:51.222Z,64.64
2022-08-05T00:40:26.945Z,65.31
2022-08-05T00:42:58.577Z,65.99
2022-08-05T00:45:37.946Z,65.26
2022-08-05T00:48:09.261Z,65.36
2022-08-05T00:50:38.735Z,65.61
2022-08-05T00:53:59.933Z,65.22
2022-08-05T00:55:57.843Z,65.15
2022-08-05T00:58:27.464Z,65.06
2022-08-05T01:00:56.410Z,65.31
2022-08-05T01:03:33.310Z,64.89
2022-08-05T01:06:03.765Z,65.24
2022-08-05T01:08:43.446Z,65.59
2022-08-05T01:11:24.235Z,65.57
2022-08-05T01:14:08.815Z,66.17
2022-08-05T01:16:44.478Z,66.36
2022-08-05T01:19:36.664Z,66.29
2022-08-05T01:22:27.740Z,66.22
2022-08-05T01:25:05.288Z,66.37
2022-08-05T01:27:54.875Z,66.33
2022-08-05T01:30:34.769Z,66.35
2022-08-05T01:33:06.276Z,66.61
2022-08-05T01:35:51.722Z,66.81
2022-08-05T01:38:27.292Z,66.70
2022-08-05T01:40:58.959Z,66.55
2022-08-05T01:43:27.833Z,66.62
2022-08-05T01:45:57.111Z,66.56
2022-08-05T01:48:27.631Z,66.69
2022-08-05T01:50:57.061Z,67.00
2022-08-05T01:53:56.915Z,66.75
2022-08-05T01:58:09.707Z,67.13
2022-08-05T01:59:08.012Z,67.05
2022-08-05T02:01:39.887Z,66.98
2022-08-05T02:04:10.208Z,67.05
2022-08-05T02:06:39.578Z,66.91
2022-08-05T02:09:09.960Z,67.05
2022-08-05T02:11:52.319Z,67.19
2022-08-05T02:14:29.201Z,67.09
2022-08-05T02:17:05.998Z,67.15
2022-08-05T02:19:47.294Z,67.14
2022-08-05T02:22:26.787Z,67.30
2022-08-05T02:25:02.244Z,67.45
2022-08-05T02:27:58.910Z,67.46
2022-08-05T02:30:22.739Z,66.85
2022-08-05T02:32:52.665Z,67.00
2022-08-05T02:35:27.718Z,67.17
2022-08-05T02:37:59.089Z,67.22
2022-08-05T02:40:28.940Z,67.37
2022-08-05T02:42:57.901Z,67.42
2022-08-05T02:45:27.143Z,67.42
2022-08-05T02:48:06.999Z,67.73
2022-08-05T02:50:44.425Z,67.84
2022-08-05T02:53:16.040Z,68.11
2022-08-05T02:56:00.051Z,69.10
2022-08-05T02:58:31.153Z,68.49
2022-08-05T03:01:01.906Z,68.14
2022-08-05T03:03:34.104Z,68.64
2022-08-05T03:06:55.755Z,68.55
2022-08-05T03:09:11.528Z,68.78
2022-08-05T03:11:54.980Z,68.92
2022-08-05T03:14:26.261Z,69.86
2022-08-05T03:16:54.498Z,69.50
2022-08-05T03:19:34.627Z,68.93
2022-08-05T03:22:04.915Z,69.27
2022-08-05T03:24:33.659Z,69.15
2022-08-05T03:27:03.155Z,69.29
2022-08-05T03:29:45.681Z,69.29
2022-08-05T03:32:30.626Z,69.38
2022-08-05T03:34:59.744Z,69.33
2022-08-05T03:37:30.977Z,69.30
2022-08-05T03:40:11.892Z,69.32
2022-08-05T03:42:52.594Z,69.22
2022-08-05T03:45:23.332Z,69.26
2022-08-05T03:47:57.182Z,70.13
2022-08-05T03:50:29.137Z,70.08
2022-08-05T03:55:49.808Z,70.36
2022-08-05T03:56:17.968Z,71.04
2022-08-05T03:58:57.891Z,70.86
2022-08-05T04:01:27.130Z,71.10
2022-08-05T04:04:10.099Z,70.64
2022-08-05T04:06:47.530Z,70.78
2022-08-05T04:09:20.470Z,70.80
2022-08-05T04:11:56.763Z,70.85
2022-08-05T04:14:30.250Z,70.99
2022-08-05T04:17:00.543Z,71.08
2022-08-05T04:19:29.298Z,71.14
2022-08-05T04:22:09.131Z,71.00
2022-08-05T04:24:43.915Z,71.04
2022-08-05T04:27:13.592Z,70.72
2022-08-05T04:29:41.753Z,70.94
2022-08-05T04:32:10.751Z,70.82
2022-08-05T04:34:42.929Z,70.42
2022-08-05T04:37:11.549Z,70.06
2022-08-05T04:39:40.826Z,68.81
2022-08-05T04:42:09.402Z,68.38
2022-08-05T04:44:37.446Z,68.14
2022-08-05T04:47:09.082Z,68.41
2022-08-05T04:50:02.951Z,68.06
2022-08-05T04:52:27.474Z,67.67
2022-08-05T04:54:57.419Z,67.54
2022-08-05T04:57:29.154Z,67.13
2022-08-05T04:59:58.604Z,66.94
2022-08-05T05:02:37.136Z,66.32
2022-08-05T05:05:26.309Z,65.81
2022-08-05T05:08:01.642Z,65.43
2022-08-05T05:10:33.759Z,63.89
2022-08-05T05:13:03.960Z,62.35
2022-08-05T05:15:56.546Z,59.34
2022-08-05T05:18:28.494Z,55.55
2022-08-05T05:21:02.361Z,51.31
2022-08-05T05:24:02.398Z,47.16
2022-08-05T05:26:19.713Z,43.14
2022-08-05T05:28:57.055Z,39.99
2022-08-05T05:31:25.197Z,37.59
2022-08-05T05:34:02.241Z,35.03
2022-08-05T05:36:32.146Z,32.59
2022-08-05T05:39:00.329Z,30.32
2022-08-05T05:41:39.965Z,28.92
2022-08-05T05:44:35.860Z,27.81
2022-08-05T05:46:58.099Z,26.35
2022-08-05T05:49:26.565Z,24.51
2022-08-05T05:51:55.052Z,22.74
2022-08-05T05:54:50.558Z,22.51
2022-08-05T05:57:13.470Z,20.79
2022-08-05T05:59:41.811Z,17.12
2022-08-05T06:02:11.275Z,19.40
2022-08-05T06:04:39.375Z,20.03
2022-08-05T06:07:07.521Z,17.45
2022-08-05T06:10:01.676Z,19.52
2022-08-05T06:12:27.210Z,18.65
2022-08-05T06:14:56.338Z,18.68
2022-08-05T06:17:52.815Z,19.87
2022-08-05T06:20:21.285Z,20.45
2022-08-05T06:22:49.906Z,22.70
2022-08-05T06:25:59.534Z,23.78
2022-08-05T06:28:10.467Z,25.17
2022-08-05T06:30:41.335Z,25.42
2022-08-05T06:33:09.985Z,26.59
2022-08-05T06:36:07.489Z,27.83
2022-08-05T06:38:35.617Z,28.23
2022-08-05T06:41:04.705Z,28.82
2022-08-05T06:43:58.162Z,29.35
2022-08-05T06:46:20.809Z,30.24
2022-08-05T06:48:55.832Z,30.88
2022-08-05T06:51:29.716Z,31.46
2022-08-05T06:53:59.783Z,32.06
2022-08-05T06:56:28.449Z,31.95
2022-08-05T06:58:56.299Z,32.58
2022-08-05T07:01:27.681Z,32.93
2022-08-05T07:04:02.474Z,33.50
2022-08-05T07:06:31.982Z,33.52
2022-08-05T07:09:04.143Z,33.31
2022-08-05T07:11:36.800Z,33.03
2022-08-05T07:14:29.376Z,33.35
2022-08-05T07:18:02.278Z,33.41
2022-08-05T07:22:41.925Z,33.53
2022-08-05T07:25:55.601Z,34.03
2022-08-05T07:28:03.911Z,34.88
2022-08-05T07:30:38.328Z,34.51
2022-08-05T07:33:10.625Z,34.18
2022-08-05T07:36:02.373Z,34.87
2022-08-05T07:38:42.946Z,34.48
2022-08-05T07:42:06.944Z,34.16
2022-08-05T07:44:05.387Z,34.48
2022-08-05T07:46:33.927Z,34.79
2022-08-05T07:49:05.912Z,34.77
2022-08-05T07:51:40.648Z,34.45
2022-08-05T07:54:10.236Z,34.20
2022-08-05T07:57:00.759Z,34.61
2022-08-05T07:59:38.069Z,34.14
2022-08-05T08:02:16.650Z,33.85
2022-08-05T08:04:46.636Z,33.84
2022-08-05T08:07:15.408Z,33.43
2022-08-05T08:09:43.791Z,33.30
2022-08-05T08:12:33.323Z,33.29
2022-08-05T08:15:02.622Z,33.46
2022-08-05T08:17:32.151Z,33.34
2022-08-05T08:20:21.381Z,33.37
2022-08-05T08:22:52.296Z,32.97
2022-08-05T08:25:26.875Z,32.59
2022-08-05T08:28:18.008Z,32.37
2022-08-05T08:30:47.397Z,31.99
2022-08-05T08:33:17.825Z,31.95
2022-08-05T08:35:52.930Z,32.16
2022-08-05T08:38:35.189Z,31.62
2022-08-05T08:41:08.685Z,30.73
2022-08-05T08:45:20.090Z,30.03
2022-08-05T08:46:27.607Z,28.54
2022-08-05T08:49:07.841Z,28.60
2022-08-05T08:52:03.573Z,28.52
2022-08-05T08:54:36.316Z,28.02
2022-08-05T08:57:11.226Z,28.43
2022-08-05T08:59:41.860Z,28.45
2022-08-05T09:02:16.595Z,28.42
2022-08-05T09:04:58.178Z,28.84
2022-08-05T09:07:39.862Z,28.37
2022-08-05T09:10:22.125Z,28.33
2022-08-05T09:12:57.071Z,28.05
2022-08-05T09:15:36.760Z,28.03
2022-08-05T09:18:09.042Z,27.41
2022-08-05T09:20:38.406Z,27.25
2022-08-05T09:23:09.495Z,26.90
2022-08-05T09:26:01.797Z,26.39
2022-08-05T09:28:31.687Z,27.07
2022-08-05T09:31:43.562Z,25.36
2022-08-05T09:34:04.097Z,25.68
2022-08-05T09:36:54.402Z,26.25
2022-08-05T09:39:41.485Z,24.93
2022-08-05T09:42:23.194Z,25.49
2022-08-05T09:44:57.197Z,26.05
2022-08-05T09:47:55.827Z,24.69
2022-08-05T09:50:44.264Z,23.91
2022-08-05T09:53:22.721Z,23.82
2022-08-05T09:56:03.620Z,23.44
2022-08-05T09:58:33.156Z,23.39
2022-08-05T10:01:07.267Z,24.73
2022-08-05T10:04:09.969Z,24.34
2022-08-05T10:06:40.818Z,24.64
2022-08-05T10:09:25.087Z,24.07
2022-08-05T10:12:29.986Z,23.00
2022-08-05T10:15:13.213Z,22.46
2022-08-05T10:17:54.588Z,22.33
2022-08-05T10:20:25.674Z,22.84
2022-08-05T10:22:53.797Z,23.37
2022-08-05T10:25:21.645Z,23.17
2022-08-05T10:28:12.807Z,22.86
2022-08-05T10:31:20.103Z,21.84
2022-08-05T10:33:28.733Z,22.44
2022-08-05T10:36:00.036Z,22.50
2022-08-05T10:38:28.956Z,22.23
2022-08-05T10:40:58.132Z,21.73
2022-08-05T10:43:35.859Z,21.63
2022-08-05T10:46:07.006Z,21.14
2022-08-05T10:48:52.915Z,20.44
2022-08-05T10:51:28.790Z,19.97
2022-08-05T10:54:00.904Z,19.88
2022-08-05T10:56:31.253Z,20.28
2022-08-05T10:59:07.199Z,20.40
2022-08-05T11:01:55.033Z,19.63
2022-08-05T11:04:42.511Z,20.27
2022-08-05T11:07:12.142Z,20.43
2022-08-05T11:09:46.711Z,19.64
2022-08-05T11:12:24.883Z,19.05
2022-08-05T11:15:19.197Z,19.96
2022-08-05T11:17:57.565Z,18.97
2022-08-05T11:20:31.381Z,19.19
2022-08-05T11:23:02.202Z,19.96
2022-08-05T11:26:04.344Z,18.87
2022-08-05T11:28:27.974Z,19.21
2022-08-05T11:30:56.126Z,19.90
2022-08-05T11:33:43.840Z,20.54
2022-08-05T11:36:34.204Z,20.85
2022-08-05T11:39:08.604Z,19.48
2022-08-05T11:42:01.462Z,20.42
2022-08-05T11:44:53.410Z,20.54
2022-08-05T11:47:49.690Z,20.22
2022-08-05T11:50:15.061Z,19.71
2022-08-05T11:52:44.031Z,19.51
2022-08-05T11:55:14.655Z,19.26
2022-08-05T11:58:10.028Z,19.96
2022-08-05T12:00:38.115Z,19.71
2022-08-05T12:03:28.859Z,19.70
2022-08-05T12:06:01.872Z,19.52
2022-08-05T12:08:32.674Z,20.10
2022-08-05T12:11:06.170Z,19.54
2022-08-05T12:13:48.821Z,19.22
2022-08-05T12:16:25.376Z,19.39
2022-08-05T12:18:55.713Z,18.98
2022-08-05T12:21:23.975Z,20.07
2022-08-05T12:24:05.025Z,20.43
2022-08-05T12:26:39.264Z,20.37
2022-08-05T12:29:16.412Z,20.33
2022-08-05T12:32:01.787Z,20.16
2022-08-05T12:34:35.776Z,19.74
2022-08-05T12:37:10.942Z,19.36
2022-08-05T12:39:48.743Z,20.28
2022-08-05T12:42:20.826Z,20.43
2022-08-05T12:44:48.895Z,20.72
2022-08-05T12:47:30.765Z,20.06
2022-08-05T12:50:04.252Z,19.52
2022-08-05T12:52:42.216Z,19.88
2022-08-05T12:55:22.314Z,19.40
2022-08-05T12:58:50.506Z,19.25
2022-08-05T13:02:01.385Z,19.34
2022-08-05T13:03:38.942Z,19.24
2022-08-05T13:06:17.609Z,19.41
2022-08-05T13:08:51.657Z,18.81
2022-08-05T13:12:01.043Z,18.84
2022-08-05T13:14:25.030Z,18.63
2022-08-05T13:17:08.608Z,18.86
2022-08-05T13:19:51.773Z,19.19
2022-08-05T13:22:28.325Z,19.92
2022-08-05T13:25:05.477Z,20.31
2022-08-05T13:27:42.365Z,20.29
2022-08-05T13:30:33.171Z,19.18
2022-08-05T13:33:01.193Z,19.07
2022-08-05T13:35:42.536Z,19.65
2022-08-05T13:38:28.282Z,19.51
2022-08-05T13:40:59.874Z,19.92
2022-08-05T13:43:45.341Z,20.18
2022-08-05T13:46:35.677Z,20.24
2022-08-05T13:49:10.575Z,19.88
2022-08-05T13:51:41.408Z,19.78
2022-08-05T13:54:15.530Z,19.94
2022-08-05T13:56:50.333Z,19.50
2022-08-05T13:59:21.341Z,19.69
2022-08-05T14:01:56.885Z,19.66
2022-08-05T14:05:00.852Z,19.93
2022-08-05T14:08:05.549Z,20.28
2022-08-05T14:10:28.710Z,20.60
2022-08-05T14:12:59.773Z,20.24
2022-08-05T14:16:09.006Z,19.76
2022-08-05T14:18:18.566Z,19.83
2022-08-05T14:20:54.429Z,20.42
2022-08-05T14:23:25.841Z,20.05
2022-08-05T14:25:58.542Z,20.47
2022-08-05T14:28:29.232Z,20.74
2022-08-05T14:30:58.175Z,19.93
2022-08-05T14:33:26.097Z,19.63
2022-08-05T14:35:54.768Z,20.19
2022-08-05T14:38:32.485Z,20.49
2022-08-05T14:41:06.467Z,20.37
2022-08-05T14:44:02.597Z,20.39
2022-08-05T14:46:28.395Z,20.00
2022-08-05T14:49:03.438Z,19.92
2022-08-05T14:51:42.747Z,19.47
2022-08-05T14:54:26.791Z,20.05
2022-08-05T14:56:57.534Z,20.55
2022-08-05T14:59:29.564Z,20.54
2022-08-05T15:02:14.704Z,20.69
2022-08-05T15:04:45.015Z,21.22
2022-08-05T15:08:12.485Z,21.84
2022-08-05T15:10:04.412Z,21.77
2022-08-05T15:12:59.880Z,22.08
2022-08-05T15:15:55.076Z,22.23
2022-08-05T15:18:14.796Z,22.10
2022-08-05T15:20:45.950Z,22.03
2022-08-05T15:23:14.361Z,21.86
2022-08-05T15:25:52.679Z,22.01
2022-08-05T15:28:27.394Z,22.02
2022-08-05T15:30:57.015Z,22.36
2022-08-05T15:34:04.678Z,22.88
2022-08-05T15:36:17.754Z,22.92
2022-08-05T15:40:41.369Z,22.95
2022-08-05T15:41:55.187Z,22.76
2022-08-05T15:44:24.966Z,22.45
2022-08-05T15:46:53.715Z,22.73
2022-08-05T15:49:55.337Z,23.54
2022-08-05T15:52:16.157Z,23.35
2022-08-05T15:54:45.080Z,23.40
2022-08-05T15:57:14.411Z,23.83
2022-08-05T15:59:44.346Z,24.23
2022-08-05T16:02:27.622Z,24.36
2022-08-05T16:04:56.427Z,23.66
2022-08-05T16:07:24.685Z,23.67
2022-08-05T16:09:57.776Z,24.25
2022-08-05T16:12:25.949Z,24.74
2022-08-05T16:14:54.431Z,25.41
2022-08-05T16:17:23.064Z,24.73
2022-08-05T16:20:04.168Z,24.72
2022-08-05T16:22:34.718Z,24.45
2022-08-05T16:25:09.674Z,24.89
2022-08-05T16:28:01.014Z,25.56
2022-08-05T16:30:28.810Z,25.58
2022-08-05T16:32:58.052Z,26.42
2022-08-05T16:35:28.355Z,28.15
2022-08-05T16:38:02.929Z,28.33
2022-08-05T16:40:51.595Z,29.31
2022-08-05T16:43:26.777Z,30.13
2022-08-05T16:46:04.214Z,30.20
2022-08-05T16:48:38.505Z,31.07
2022-08-05T16:51:09.414Z,31.02
2022-08-05T16:54:05.933Z,31.93
2022-08-05T16:56:28.132Z,32.46
2022-08-05T16:58:56.072Z,33.17
2022-08-05T17:01:25.102Z,32.71
2022-08-05T17:03:53.087Z,33.09
2022-08-05T17:06:24.681Z,32.58
2022-08-05T17:08:54.298Z,33.60
2022-08-05T17:11:25.288Z,33.90
2022-08-05T17:14:00.299Z,34.54
2022-08-05T17:16:36.490Z,33.51
2022-08-05T17:19:07.583Z,35.25
2022-08-05T17:21:39.757Z,35.06
2022-08-05T17:24:19.310Z,35.41
2022-08-05T17:26:59.241Z,34.97
2022-08-05T17:29:33.059Z,36.14
2022-08-05T17:32:02.274Z,36.51
2022-08-05T17:34:32.220Z,36.73
2022-08-05T17:37:04.650Z,37.18
2022-08-05T17:39:55.871Z,38.20
2022-08-05T17:42:29.865Z,38.78
2022-08-05T17:45:09.854Z,39.20
2022-08-05T17:47:54.982Z,39.38
2022-08-05T17:50:28.392Z,40.90
2022-08-05T17:52:59.680Z,41.53
2022-08-05T17:55:34.302Z,41.18
2022-08-05T17:58:12.491Z,41.10
2022-08-05T18:00:47.647Z,40.83
2022-08-05T18:06:11.925Z,41.72
2022-08-05T18:08:52.141Z,42.19
2022-08-05T18:11:32.868Z,43.89
2022-08-05T18:14:07.319Z,43.78
2022-08-05T18:16:51.105Z,44.07
2022-08-05T18:19:23.112Z,44.71
2022-08-05T18:22:09.244Z,44.34
2022-08-05T18:24:39.948Z,44.93
2022-08-05T18:27:12.365Z,45.91
2022-08-05T18:29:54.381Z,45.70
2022-08-05T18:32:28.074Z,45.41
2022-08-05T18:34:57.463Z,45.69
2022-08-05T18:37:34.605Z,45.98
2022-08-05T18:41:52.769Z,46.67
2022-08-05T18:42:58.413Z,45.97
2022-08-05T18:45:41.722Z,45.70
2022-08-05T18:48:11.303Z,46.14
2022-08-05T18:52:05.557Z,46.77
2022-08-05T18:53:51.674Z,48.01
2022-08-05T18:56:21.781Z,47.52
2022-08-05T18:58:54.754Z,47.46
2022-08-05T19:01:33.128Z,47.69
2022-08-05T19:04:01.767Z,47.91
2022-08-05T19:06:34.377Z,47.69
2022-08-05T19:09:12.833Z,47.51
2022-08-05T19:12:00.291Z,48.85
2022-08-05T19:14:53.537Z,49.55
2022-08-05T19:17:17.783Z,49.97
2022-08-05T19:19:48.620Z,50.24
2022-08-05T19:22:22.710Z,50.77
2022-08-05T19:25:00.892Z,49.84
2022-08-05T19:27:30.843Z,49.78
2022-08-05T19:29:58.937Z,49.85
2022-08-05T19:32:27.744Z,49.75
2022-08-05T19:34:56.684Z,49.89
2022-08-05T19:37:47.446Z,50.09
2022-08-05T19:40:16.030Z,49.94
2022-08-05T19:43:04.719Z,49.77
2022-08-05T19:45:36.873Z,50.12
2022-08-05T19:48:06.247Z,50.25
2022-08-05T19:50:35.184Z,49.85
2022-08-05T19:53:09.322Z,49.84
2022-08-05T19:56:14.993Z,49.92
2022-08-05T19:58:29.497Z,50.03
2022-08-05T20:00:58.548Z,50.48
2022-08-05T20:03:27.638Z,50.77
2022-08-05T20:06:11.863Z,50.63
2022-08-05T20:08:47.437Z,51.00
2022-08-05T20:11:18.106Z,51.17
2022-08-05T20:13:58.761Z,51.30
2022-08-05T20:16:35.928Z,51.36
2022-08-05T20:19:05.530Z,51.49
2022-08-05T20:21:34.833Z,51.60
2022-08-05T20:24:06.770Z,51.29
2022-08-05T20:26:34.645Z,51.56
2022-08-05T20:29:02.636Z,51.63
2022-08-05T20:31:42.102Z,51.11
2022-08-05T20:34:12.515Z,51.74
2022-08-05T20:36:43.310Z,51.50
2022-08-05T20:39:13.249Z,52.04
2022-08-05T20:41:44.266Z,52.98
2022-08-05T20:44:17.510Z,53.79
2022-08-05T20:46:48.059Z,53.63
2022-08-05T20:49:24.209Z,54.30
2022-08-05T20:51:54.723Z,54.42
2022-08-05T20:54:24.636Z,54.43
2022-08-05T20:56:53.264Z,55.17
2022-08-05T20:59:26.518Z,56.25
2022-08-05T21:01:57.923Z,56.29
2022-08-05T21:04:26.837Z,56.58
2022-08-05T21:06:55.810Z,55.92
2022-08-05T21:09:23.958Z,55.83
2022-08-05T21:12:10.904Z,56.14
2022-08-05T21:14:39.909Z,55.78
2022-08-05T21:17:07.804Z,55.50
2022-08-05T21:19:47.375Z,55.16
2022-08-05T21:22:23.046Z,56.07
2022-08-05T21:24:54.347Z,58.20
2022-08-05T21:27:24.677Z,57.79
2022-08-05T21:29:55.506Z,57.46
2022-08-05T21:32:26.710Z,56.92
2022-08-05T21:35:17.413Z,56.70
2022-08-05T21:37:52.669Z,56.86
2022-08-05T21:40:24.841Z,57.06
2022-08-05T21:42:53.698Z,56.59
2022-08-05T21:45:26.501Z,57.05
2022-08-05T21:48:10.149Z,57.16
2022-08-05T21:50:53.044Z,57.29
2022-08-05T21:53:23.236Z,57.71
2022-08-05T21:56:06.316Z,57.44
2022-08-05T21:58:48.399Z,57.45
2022-08-05T22:01:26.479Z,57.58
2022-08-05T22:03:54.572Z,57.64
2022-08-05T22:06:35.182Z,57.49
2022-08-05T22:09:13.627Z,57.51
2022-08-05T22:11:43.687Z,58.29
2022-08-05T22:14:34.387Z,58.00
2022-08-05T22:17:07.126Z,57.97
2022-08-05T22:20:01.662Z,58.48
2022-08-05T22:22:27.709Z,58.42
2022-08-05T22:25:18.049Z,58.43
2022-08-05T22:28:09.184Z,58.53
2022-08-05T22:30:44.324Z,58.46
2022-08-05T22:33:58.605Z,58.82
2022-08-05T22:36:14.237Z,58.67
2022-08-05T22:38:48.157Z,58.55
2022-08-05T22:42:04.861Z,58.81
2022-08-05T22:44:08.225Z,59.11
2022-08-05T22:46:39.923Z,58.91
2022-08-05T22:49:12.506Z,59.33
2022-08-05T22:52:05.085Z,58.59
2022-08-05T22:54:36.251Z,58.35
2022-08-05T22:57:05.548Z,60.33
2022-08-05T22:59:44.066Z,59.44
2022-08-05T23:02:28.964Z,58.17
2022-08-05T23:05:02.054Z,60.37
2022-08-05T23:07:44.715Z,60.11
2022-08-05T23:10:20.241Z,60.34
2022-08-05T23:12:51.735Z,60.70
2022-08-05T23:15:29.933Z,60.78
2022-08-05T23:18:06.190Z,60.71
2022-08-05T23:20:39.806Z,60.96
2022-08-05T23:23:08.802Z,60.92
2022-08-05T23:25:53.412Z,60.73
2022-08-05T23:28:29.083Z,60.83
2022-08-05T23:31:15.691Z,60.82
2022-08-05T23:34:03.965Z,60.75
2022-08-05T23:36:38.401Z,60.93
2022-08-05T23:39:07.243Z,61.05
2022-08-05T23:41:37.384Z,60.92
2022-08-05T23:44:09.150Z,61.07
2022-08-05T23:46:39.350Z,61.30
2022-08-05T23:49:16.479Z,61.17
2022-08-05T23:52:05.742Z,59.80
2022-08-05T23:54:38.132Z,60.76
2022-08-05T23:57:07.392Z,61.19
